Time;durP1;ratioP1;P1;durP2;ratioP2;P2;SDS_P1;SDS_P2;PMS_P1;PMS_P2;Temp;Humidity;BMP_temperature;BMP_pressure;BME280_temperature;BME280_humidity;BME280_pressure;Samples;Min_cycle;Max_cycle;Signal;HPM_P1;HPM_P2
2021/08/12 00:00:20;;;;;;;;;;;24.40;48.60;;;;;;8363891;28;19917;-44
2021/08/12 00:04:20;;;;;;;;;;;24.40;48.60;;;;;;8365310;28;19920;-43
2021/08/12 00:08:21;;;;;;;;;;;24.40;48.60;;;;;;8364568;28;19927;-45
2021/08/12 00:12:21;;;;;;;;;;;24.40;48.60;;;;;;8364305;28;20007;-44
2021/08/12 00:16:22;;;;;;;;;;;24.40;48.60;;;;;;8363010;28;20393;-48
2021/08/12 00:20:22;;;;;;;;;;;24.30;48.60;;;;;;8364497;28;19919;-44
2021/08/12 00:24:22;;;;;;;;;;;24.30;48.50;;;;;;8363682;28;19936;-44
2021/08/12 00:28:23;;;;;;;;;;;24.30;48.60;;;;;;8363629;28;19921;-44
2021/08/12 00:32:24;;;;;;;;;;;24.40;48.60;;;;;;8363603;28;19924;-44
2021/08/12 00:36:24;;;;;;;;;;;24.30;48.50;;;;;;8363043;28;19932;-44
2021/08/12 00:40:25;;;;;;;;;;;24.30;48.50;;;;;;8364196;28;20405;-44
2021/08/12 00:44:26;;;;;;;;;;;24.30;48.60;;;;;;8363415;28;20350;-45
2021/08/12 00:48:26;;;;;;;;;;;24.30;48.60;;;;;;8362940;28;19970;-44
2021/08/12 00:52:27;;;;;;;;;;;24.30;48.60;;;;;;8363124;28;20304;-45
2021/08/12 00:56:28;;;;;;;;;;;24.30;49.10;;;;;;8363821;28;19913;-44
2021/08/12 01:00:28;;;;;;;;;;;24.30;48.60;;;;;;8362596;28;20293;-44
2021/08/12 01:04:29;;;;;;;;;;;24.30;48.60;;;;;;8363042;28;19917;-43
2021/08/12 01:08:35;;;;;;;;;;;24.30;48.60;;;;;;8363550;28;19978;-44
2021/08/12 01:13:05;;;;;;;;;;;24.30;48.60;;;;;;8362367;28;19978;-44
2021/08/12 01:17:11;;;;;;;;;;;24.30;48.60;;;;;;8344109;28;20331;-45
2021/08/12 01:21:11;;;;;;;;;;;24.20;48.60;;;;;;8362446;28;19917;-44
2021/08/12 01:25:17;;;;;;;;;;;24.30;48.60;;;;;;8362888;28;19971;-44
2021/08/12 01:29:23;;;;;;;;;;;24.20;48.60;;;;;;8362749;28;19940;-44
2021/08/12 01:33:45;;;;;;;;;;;24.20;48.70;;;;;;8365557;28;19921;-44
2021/08/12 01:37:48;;;;;;;;;;;24.20;48.60;;;;;;8369751;28;20381;-43
2021/08/12 01:41:48;;;;;;;;;;;24.20;48.60;;;;;;8368487;28;20293;-45
2021/08/12 01:45:50;;;;;;;;;;;24.20;48.60;;;;;;8369031;28;19924;-44
2021/08/12 01:49:52;;;;;;;;;;;24.20;48.60;;;;;;8368776;28;19917;-44
2021/08/12 01:53:54;;;;;;;;;;;24.20;48.60;;;;;;8368795;28;19928;-44
2021/08/12 01:58:01;;;;;;;;;;;24.20;48.60;;;;;;8368228;28;20440;-44
2021/08/12 02:02:03;;;;;;;;;;;24.20;48.70;;;;;;8368261;28;19994;-44
2021/08/12 02:06:04;;;;;;;;;;;24.10;48.60;;;;;;8367633;28;19917;-43
2021/08/12 02:10:05;;;;;;;;;;;24.10;48.60;;;;;;8368360;28;20373;-45
2021/08/12 02:14:06;;;;;;;;;;;24.10;48.70;;;;;;8368556;28;19978;-44
2021/08/12 02:18:06;;;;;;;;;;;24.10;48.60;;;;;;8367289;28;20263;-44
2021/08/12 02:22:19;;;;;;;;;;;24.10;48.70;;;;;;8367593;28;19921;-44
2021/08/12 02:26:20;;;;;;;;;;;24.10;48.70;;;;;;8367420;28;19939;-44
2021/08/12 02:30:21;;;;;;;;;;;24.10;48.70;;;;;;8367516;28;19966;-44
2021/08/12 02:34:22;;;;;;;;;;;24.10;48.70;;;;;;8367090;28;19921;-44
2021/08/12 02:38:23;;;;;;;;;;;24.10;48.70;;;;;;8367128;28;19917;-44
2021/08/12 02:42:24;;;;;;;;;;;24.10;49.30;;;;;;8366548;28;20289;-43
2021/08/12 02:46:25;;;;;;;;;;;24.10;48.70;;;;;;8365831;28;20003;-44
2021/08/12 02:50:26;;;;;;;;;;;24.10;48.80;;;;;;8367440;28;20004;-44
2021/08/12 02:54:27;;;;;;;;;;;24.10;48.80;;;;;;8366098;28;19921;-44
2021/08/12 02:58:32;;;;;;;;;;;24.00;48.70;;;;;;8366478;28;19924;-44
2021/08/12 03:02:34;;;;;;;;;;;24.10;48.80;;;;;;8366263;28;19924;-43
2021/08/12 03:06:37;;;;;;;;;;;24.00;48.80;;;;;;8366401;28;20360;-44
2021/08/12 03:10:37;;;;;;;;;;;24.10;48.80;;;;;;8365774;28;19924;-44
2021/08/12 03:14:38;;;;;;;;;;;24.00;48.80;;;;;;8365770;28;19956;-45
2021/08/12 03:18:39;;;;;;;;;;;24.10;48.80;;;;;;8364885;28;20370;-44
2021/08/12 03:22:40;;;;;;;;;;;24.00;48.80;;;;;;8365470;28;19913;-44
2021/08/12 03:26:41;;;;;;;;;;;24.00;48.80;;;;;;8365804;28;19912;-44
2021/08/12 03:30:41;;;;;;;;;;;24.00;48.80;;;;;;8364423;28;20301;-43
2021/08/12 03:34:42;;;;;;;;;;;24.00;48.80;;;;;;8365464;28;19916;-44
2021/08/12 03:38:42;;;;;;;;;;;24.00;48.80;;;;;;8364749;28;20427;-44
2021/08/12 03:42:43;;;;;;;;;;;24.00;48.80;;;;;;8364983;28;19913;-44
2021/08/12 03:46:43;;;;;;;;;;;24.00;48.90;;;;;;8364765;28;19920;-44
2021/08/12 03:50:44;;;;;;;;;;;23.90;48.80;;;;;;8364257;28;20370;-44
2021/08/12 03:54:44;;;;;;;;;;;24.00;48.90;;;;;;8363701;28;20003;-44
2021/08/12 03:58:45;;;;;;;;;;;24.00;48.90;;;;;;8363689;28;19912;-43
2021/08/12 04:02:45;;;;;;;;;;;23.90;48.90;;;;;;8364380;28;20432;-44
2021/08/12 04:06:45;;;;;;;;;;;23.90;48.90;;;;;;8364099;28;19978;-44
2021/08/12 04:10:46;;;;;;;;;;;23.90;48.90;;;;;;8364117;28;19928;-44
2021/08/12 04:14:46;;;;;;;;;;;23.90;48.90;;;;;;8363396;28;20428;-44
2021/08/12 04:18:47;;;;;;;;;;;23.90;48.90;;;;;;8364841;28;19913;-44
2021/08/12 04:22:47;;;;;;;;;;;23.80;48.90;;;;;;8363481;28;19917;-44
2021/08/12 04:26:48;;;;;;;;;;;23.90;48.90;;;;;;8363084;28;19917;-44
2021/08/12 04:30:49;;;;;;;;;;;23.90;48.90;;;;;;8363091;28;19928;-44
2021/08/12 04:34:49;;;;;;;;;;;23.90;49.00;;;;;;8363981;28;19913;-44
2021/08/12 04:38:50;;;;;;;;;;;23.90;48.90;;;;;;8363031;28;19917;-44
2021/08/12 04:42:52;;;;;;;;;;;23.80;48.90;;;;;;8363177;28;19924;-46
2021/08/12 04:46:53;;;;;;;;;;;23.80;48.90;;;;;;8363609;28;19963;-45
2021/08/12 04:50:53;;;;;;;;;;;23.80;48.90;;;;;;8362850;28;19956;-45
2021/08/12 04:54:54;;;;;;;;;;;23.80;48.90;;;;;;8363734;28;19992;-44
2021/08/12 04:58:57;;;;;;;;;;;23.80;48.90;;;;;;8363109;28;19917;-43
2021/08/12 05:02:58;;;;;;;;;;;23.80;48.90;;;;;;8362744;28;19921;-43
2021/08/12 05:06:58;;;;;;;;;;;23.80;49.00;;;;;;8363912;28;19944;-44
2021/08/12 05:10:58;;;;;;;;;;;23.80;48.90;;;;;;8370500;28;19925;-45
2021/08/12 05:14:59;;;;;;;;;;;23.80;49.00;;;;;;8369086;28;20007;-44
2021/08/12 05:19:00;;;;;;;;;;;23.80;49.00;;;;;;8369375;28;19916;-45
2021/08/12 05:23:00;;;;;;;;;;;23.80;49.00;;;;;;8369329;28;19916;-44
2021/08/12 05:27:00;;;;;;;;;;;23.80;49.00;;;;;;8369453;28;20286;-44
2021/08/12 05:31:04;;;;;;;;;;;23.70;48.90;;;;;;8369000;28;20400;-44
2021/08/12 05:35:05;;;;;;;;;;;23.80;49.00;;;;;;8368879;28;20403;-44
2021/08/12 05:39:05;;;;;;;;;;;23.80;49.00;;;;;;8368347;28;19917;-44
2021/08/12 05:43:05;;;;;;;;;;;23.80;49.00;;;;;;8368719;28;19917;-45
2021/08/12 05:47:06;;;;;;;;;;;23.80;49.00;;;;;;8368691;28;19959;-44
2021/08/12 05:51:06;;;;;;;;;;;23.80;49.00;;;;;;8367548;28;20019;-44
2021/08/12 05:55:07;;;;;;;;;;;23.80;49.00;;;;;;8368257;28;19917;-44
2021/08/12 05:59:08;;;;;;;;;;;23.70;48.90;;;;;;8368229;28;19924;-44
2021/08/12 06:03:09;;;;;;;;;;;23.80;49.00;;;;;;8368435;28;19913;-46
2021/08/12 06:07:10;;;;;;;;;;;23.70;48.90;;;;;;8368379;28;20359;-46
2021/08/12 06:11:10;;;;;;;;;;;23.80;49.00;;;;;;8367583;28;19932;-46
2021/08/12 06:15:11;;;;;;;;;;;23.80;49.00;;;;;;8367388;28;20008;-45
2021/08/12 06:19:11;;;;;;;;;;;23.70;48.90;;;;;;8368201;28;19913;-45
2021/08/12 06:23:12;;;;;;;;;;;23.70;48.90;;;;;;8367526;28;19917;-44
2021/08/12 06:27:12;;;;;;;;;;;23.80;48.90;;;;;;8366934;28;19924;-45
2021/08/12 06:31:13;;;;;;;;;;;23.70;48.90;;;;;;8367096;28;20438;-45
2021/08/12 06:35:13;;;;;;;;;;;23.70;48.90;;;;;;8367096;28;19928;-45
2021/08/12 06:39:14;;;;;;;;;;;23.80;49.00;;;;;;8367259;28;19955;-45
2021/08/12 06:43:14;;;;;;;;;;;23.80;49.00;;;;;;8366874;28;19917;-46
2021/08/12 06:47:15;;;;;;;;;;;23.80;49.00;;;;;;8366678;28;19920;-45
2021/08/12 06:51:15;;;;;;;;;;;23.80;49.00;;;;;;8366061;28;19932;-45
2021/08/12 06:55:15;;;;;;;;;;;23.80;49.00;;;;;;8367467;28;19917;-45
2021/08/12 06:59:16;;;;;;;;;;;23.80;49.00;;;;;;8366659;28;20297;-45
2021/08/12 07:03:16;;;;;;;;;;;23.80;48.90;;;;;;8365895;28;19959;-45
2021/08/12 07:07:17;;;;;;;;;;;23.80;48.90;;;;;;8366129;28;19921;-45
2021/08/12 07:11:17;;;;;;;;;;;23.80;48.80;;;;;;8366456;28;19921;-45
2021/08/12 07:15:18;;;;;;;;;;;23.80;48.70;;;;;;8366237;28;20019;-45
2021/08/12 07:19:18;;;;;;;;;;;23.90;48.70;;;;;;8365808;28;20309;-45
2021/08/12 07:23:18;;;;;;;;;;;24.00;48.70;;;;;;8365636;28;20397;-46
2021/08/12 07:27:19;;;;;;;;;;;24.00;48.50;;;;;;8365131;28;20438;-45
2021/08/12 07:31:20;;;;;;;;;;;24.00;48.50;;;;;;8365369;28;20271;-45
2021/08/12 07:35:22;;;;;;;;;;;24.00;48.50;;;;;;8365135;28;20366;-45
2021/08/12 07:39:23;;;;;;;;;;;23.90;48.50;;;;;;8364590;28;19928;-48
2021/08/12 07:43:23;;;;;;;;;;;23.90;48.60;;;;;;8365109;28;20282;-47
2021/08/12 07:47:24;;;;;;;;;;;23.90;49.40;;;;;;8365668;28;20366;-46
2021/08/12 07:51:24;;;;;;;;;;;23.90;48.90;;;;;;8364300;28;19924;-46
2021/08/12 07:55:25;;;;;;;;;;;23.90;48.90;;;;;;8364560;28;19939;-45
2021/08/12 07:59:25;;;;;;;;;;;23.90;48.80;;;;;;8364606;28;20042;-45
2021/08/12 08:03:26;;;;;;;;;;;23.90;48.80;;;;;;8364015;28;19970;-46
2021/08/12 08:07:26;;;;;;;;;;;23.90;48.80;;;;;;8364904;28;19924;-45
2021/08/12 08:11:26;;;;;;;;;;;23.90;48.80;;;;;;8364035;28;19970;-46
2021/08/12 08:15:27;;;;;;;;;;;23.90;48.80;;;;;;8363756;28;19924;-46
2021/08/12 08:19:29;;;;;;;;;;;23.90;48.80;;;;;;8363996;28;20004;-46
2021/08/12 08:23:29;;;;;;;;;;;23.90;48.90;;;;;;8364779;28;19936;-45
2021/08/12 08:27:30;;;;;;;;;;;23.90;48.90;;;;;;8363532;28;19917;-46
2021/08/12 08:31:30;;;;;;;;;;;23.90;48.90;;;;;;8364063;28;19929;-46
2021/08/12 08:35:31;;;;;;;;;;;23.90;48.90;;;;;;8355263;28;20043;-45
2021/08/12 08:39:31;;;;;;;;;;;24.00;49.00;;;;;;8363671;28;19943;-45
2021/08/12 08:43:33;;;;;;;;;;;23.90;48.90;;;;;;8362587;28;19923;-45
2021/08/12 08:47:34;;;;;;;;;;;24.00;49.00;;;;;;8363312;28;19916;-45
2021/08/12 08:51:35;;;;;;;;;;;24.00;49.00;;;;;;8362643;28;19932;-46
2021/08/12 08:55:35;;;;;;;;;;;23.90;48.90;;;;;;8363291;28;19925;-46
2021/08/12 08:59:36;;;;;;;;;;;24.00;49.00;;;;;;8363778;28;19947;-45
2021/08/12 09:03:37;;;;;;;;;;;24.00;49.00;;;;;;8362570;28;19917;-45
2021/08/12 09:07:37;;;;;;;;;;;24.00;49.00;;;;;;8363306;28;20020;-46
2021/08/12 09:11:38;;;;;;;;;;;24.00;49.00;;;;;;8362790;28;19929;-45
2021/08/12 09:15:39;;;;;;;;;;;24.00;49.00;;;;;;8363028;28;20346;-45
2021/08/12 09:19:40;;;;;;;;;;;24.00;49.00;;;;;;8362990;28;19951;-46
2021/08/12 09:23:40;;;;;;;;;;;24.10;49.00;;;;;;8362924;28;19924;-45
2021/08/12 09:27:40;;;;;;;;;;;24.10;49.00;;;;;;8362312;28;19917;-45
2021/08/12 09:32:00;;;;;;;;;;;24.10;49.00;;;;;;8363018;28;19943;-45
2021/08/12 09:36:01;;;;;;;;;;;24.10;49.00;;;;;;8362817;28;19988;-45
2021/08/12 09:40:03;;;;;;;;;;;24.10;49.00;;;;;;8362403;28;19952;-45
2021/08/12 09:44:03;;;;;;;;;;;24.10;49.00;;;;;;8362514;28;19917;-46
2021/08/12 09:48:18;;;;;;;;;;;24.10;49.00;;;;;;8362005;28;19923;-45
2021/08/12 09:52:27;;;;;;;;;;;24.10;49.00;;;;;;8363067;28;19920;-46
2021/08/12 09:56:28;;;;;;;;;;;24.10;49.00;;;;;;8368709;28;19923;-45
2021/08/12 10:00:30;;;;;;;;;;;24.20;49.00;;;;;;8367907;28;19916;-46
2021/08/12 10:04:31;;;;;;;;;;;24.20;49.00;;;;;;8368224;28;19924;-46
2021/08/12 10:08:31;;;;;;;;;;;24.20;49.00;;;;;;8368487;28;20336;-45
2021/08/12 10:12:32;;;;;;;;;;;24.30;49.00;;;;;;8368028;28;19921;-45
2021/08/12 10:16:34;;;;;;;;;;;24.30;49.00;;;;;;8367878;28;20009;-45
2021/08/12 10:20:35;;;;;;;;;;;24.30;49.00;;;;;;8367748;28;19944;-46
2021/08/12 10:24:35;;;;;;;;;;;24.30;49.00;;;;;;8366965;28;20289;-45
2021/08/12 10:28:38;;;;;;;;;;;24.30;48.90;;;;;;8368312;28;19916;-45
2021/08/12 10:32:42;;;;;;;;;;;24.30;48.90;;;;;;8365795;28;19999;-43
2021/08/12 10:36:46;;;;;;;;;;;24.40;49.40;;;;;;8366721;28;19918;-43
2021/08/12 10:40:47;;;;;;;;;;;24.40;48.90;;;;;;8367101;28;19928;-43
2021/08/12 10:44:48;;;;;;;;;;;24.40;48.90;;;;;;8366463;28;19925;-43
2021/08/12 10:48:48;;;;;;;;;;;24.40;48.90;;;;;;8367641;28;19919;-43
2021/08/12 10:53:06;;;;;;;;;;;24.50;48.90;;;;;;8366588;28;19932;-42
2021/08/12 10:57:12;;;;;;;;;;;24.50;48.90;;;;;;8365933;28;19967;-43
2021/08/12 11:01:25;;;;;;;;;;;24.50;48.90;;;;;;8366530;28;20378;-44
2021/08/12 11:05:46;;;;;;;;;;;24.50;48.90;;;;;;8365273;28;20286;-44
2021/08/12 11:09:56;;;;;;;;;;;24.50;48.90;;;;;;8366657;28;19931;-46
2021/08/12 11:13:57;;;;;;;;;;;24.50;48.90;;;;;;8365995;28;20011;-44
2021/08/12 11:17:57;;;;;;;;;;;24.60;48.90;;;;;;8365467;28;20384;-43
2021/08/12 11:21:59;;;;;;;;;;;24.60;48.90;;;;;;8365660;28;19958;-44
2021/08/12 11:26:01;;;;;;;;;;;24.50;48.80;;;;;;8366465;28;19921;-44
2021/08/12 11:30:20;;;;;;;;;;;24.60;48.90;;;;;;8365165;28;20235;-44
2021/08/12 11:34:32;;;;;;;;;;;24.60;48.90;;;;;;8365218;28;19967;-45
2021/08/12 11:38:32;;;;;;;;;;;24.60;48.90;;;;;;8365496;28;20366;-44
2021/08/12 11:42:40;;;;;;;;;;;24.60;48.80;;;;;;8364818;28;19924;-44
2021/08/12 11:46:41;;;;;;;;;;;24.60;48.80;;;;;;8366045;28;19920;-46
2021/08/12 11:50:41;;;;;;;;;;;24.70;48.80;;;;;;8350273;28;19948;-44
2021/08/12 11:54:42;;;;;;;;;;;24.70;48.90;;;;;;8353479;28;20007;-44
2021/08/12 11:58:46;;;;;;;;;;;24.70;48.80;;;;;;8364724;28;19948;-43
2021/08/12 12:02:59;;;;;;;;;;;24.70;48.80;;;;;;8364240;28;20404;-45
2021/08/12 12:07:00;;;;;;;;;;;24.70;48.80;;;;;;8365255;28;20009;-44
2021/08/12 12:11:08;;;;;;;;;;;24.80;48.80;;;;;;8364365;28;20358;-43
2021/08/12 12:15:08;;;;;;;;;;;24.80;48.80;;;;;;8363858;28;20380;-43
2021/08/12 12:19:09;;;;;;;;;;;24.80;48.80;;;;;;8363812;28;19917;-47
2021/08/12 12:23:10;;;;;;;;;;;24.80;48.80;;;;;;8364710;28;19913;-44
2021/08/12 12:27:11;;;;;;;;;;;24.90;48.80;;;;;;8363685;28;20325;-43
2021/08/12 12:31:15;;;;;;;;;;;24.90;49.30;;;;;;8363934;28;19925;-43
2021/08/12 12:35:16;;;;;;;;;;;24.90;48.80;;;;;;8363570;28;19924;-44
2021/08/12 12:39:22;;;;;;;;;;;24.90;48.80;;;;;;8363256;28;19947;-44
2021/08/12 12:43:27;;;;;;;;;;;24.90;48.80;;;;;;8364311;28;19999;-46
2021/08/12 12:47:28;;;;;;;;;;;25.00;48.80;;;;;;8363486;28;19921;-43
2021/08/12 12:51:29;;;;;;;;;;;24.90;48.80;;;;;;8362950;28;19925;-43
2021/08/12 12:55:33;;;;;;;;;;;25.00;48.80;;;;;;8363626;28;19916;-43
2021/08/12 12:59:34;;;;;;;;;;;25.00;48.80;;;;;;8364189;28;19913;-43
2021/08/12 13:03:39;;;;;;;;;;;25.00;49.40;;;;;;8362759;28;20289;-44
2021/08/12 13:07:39;;;;;;;;;;;25.00;48.80;;;;;;8363718;28;20255;-44
2021/08/12 13:11:41;;;;;;;;;;;25.00;48.80;;;;;;8362990;28;19924;-43
2021/08/12 13:15:51;;;;;;;;;;;25.10;48.80;;;;;;8362649;28;19917;-43
2021/08/12 13:20:06;;;;;;;;;;;25.00;48.80;;;;;;8363603;28;19913;-43
2021/08/12 13:24:11;;;;;;;;;;;25.10;48.90;;;;;;8362499;28;19917;-44
2021/08/12 13:28:11;;;;;;;;;;;25.10;48.90;;;;;;8364072;28;19916;-43
2021/08/12 13:32:13;;;;;;;;;;;25.10;48.80;;;;;;8369135;28;19925;-45
2021/08/12 13:36:13;;;;;;;;;;;25.20;48.90;;;;;;8368726;28;19913;-43
2021/08/12 13:40:14;;;;;;;;;;;25.10;48.80;;;;;;8369708;28;20011;-43
2021/08/12 13:44:14;;;;;;;;;;;25.20;48.80;;;;;;8368969;28;19921;-45
2021/08/12 13:48:15;;;;;;;;;;;25.20;48.80;;;;;;8368560;28;19996;-43
2021/08/12 13:52:15;;;;;;;;;;;25.20;48.80;;;;;;8368781;28;20015;-44
2021/08/12 13:56:16;;;;;;;;;;;25.20;48.70;;;;;;8369443;28;19920;-43
2021/08/12 14:00:16;;;;;;;;;;;25.20;48.70;;;;;;8368246;28;19917;-43
2021/08/12 14:04:17;;;;;;;;;;;25.20;48.70;;;;;;8368892;28;19917;-45
2021/08/12 14:08:17;;;;;;;;;;;25.30;48.80;;;;;;8368808;28;19966;-43
2021/08/12 14:12:18;;;;;;;;;;;25.30;48.80;;;;;;8368284;28;19928;-44
2021/08/12 14:16:20;;;;;;;;;;;25.30;48.80;;;;;;8367907;28;19923;-43
2021/08/12 14:20:21;;;;;;;;;;;25.30;48.80;;;;;;8367914;28;19940;-43
2021/08/12 14:24:21;;;;;;;;;;;25.30;48.80;;;;;;8367408;28;19992;-44
2021/08/12 14:28:22;;;;;;;;;;;25.30;48.80;;;;;;8367642;28;19919;-43
2021/08/12 14:32:22;;;;;;;;;;;25.30;48.80;;;;;;8368254;28;20280;-44
2021/08/12 14:36:23;;;;;;;;;;;25.30;48.70;;;;;;8366937;28;19924;-44
2021/08/12 14:40:26;;;;;;;;;;;25.40;48.80;;;;;;8367162;28;20007;-43
2021/08/12 14:44:26;;;;;;;;;;;25.40;48.80;;;;;;8366973;28;20302;-43
2021/08/12 14:48:27;;;;;;;;;;;25.40;48.70;;;;;;8367524;28;19921;-43
2021/08/12 14:52:28;;;;;;;;;;;25.40;48.70;;;;;;8366810;28;19924;-44
2021/08/12 14:56:28;;;;;;;;;;;25.40;48.70;;;;;;8366907;28;19940;-44
2021/08/12 15:00:28;;;;;;;;;;;25.40;48.70;;;;;;8366140;28;19970;-44
2021/08/12 15:04:29;;;;;;;;;;;25.50;48.70;;;;;;8367147;28;19920;-44
2021/08/12 15:08:29;;;;;;;;;;;25.50;48.70;;;;;;8366508;28;19921;-44
2021/08/12 15:12:30;;;;;;;;;;;25.40;48.70;;;;;;8365703;28;19925;-45
2021/08/12 15:16:30;;;;;;;;;;;25.50;48.70;;;;;;8366129;28;20019;-43
2021/08/12 15:20:31;;;;;;;;;;;25.50;48.70;;;;;;8366115;28;20313;-43
2021/08/12 15:24:32;;;;;;;;;;;25.50;48.70;;;;;;8366104;28;19913;-43
2021/08/12 15:28:32;;;;;;;;;;;25.50;48.70;;;;;;8365844;28;20389;-44
2021/08/12 15:32:33;;;;;;;;;;;25.60;48.70;;;;;;8365635;28;19925;-43
2021/08/12 15:36:33;;;;;;;;;;;25.60;48.70;;;;;;8364948;28;20290;-44
2021/08/12 15:40:34;;;;;;;;;;;25.60;48.70;;;;;;8366030;28;19924;-43
2021/08/12 15:44:35;;;;;;;;;;;25.60;48.70;;;;;;8365279;28;19923;-44
2021/08/12 15:48:35;;;;;;;;;;;25.60;48.70;;;;;;8364687;28;20297;-43
2021/08/12 15:52:37;;;;;;;;;;;25.60;48.60;;;;;;8364480;28;19967;-43
2021/08/12 15:56:38;;;;;;;;;;;25.60;48.70;;;;;;8364901;28;19917;-44
2021/08/12 16:00:39;;;;;;;;;;;25.60;48.70;;;;;;8364983;28;20354;-44
2021/08/12 16:04:39;;;;;;;;;;;25.60;48.70;;;;;;8364515;28;19923;-46
2021/08/12 16:08:40;;;;;;;;;;;25.60;48.70;;;;;;8364549;28;19921;-44
2021/08/12 16:12:40;;;;;;;;;;;25.60;48.70;;;;;;8363882;28;19947;-45
2021/08/12 16:16:41;;;;;;;;;;;25.60;48.60;;;;;;8364884;28;20385;-43
2021/08/12 16:20:41;;;;;;;;;;;25.60;48.60;;;;;;8364188;28;19924;-44
2021/08/12 16:24:42;;;;;;;;;;;25.60;48.60;;;;;;8363602;28;19923;-44
2021/08/12 16:28:42;;;;;;;;;;;25.60;48.60;;;;;;8364048;28;19917;-44
2021/08/12 16:32:43;;;;;;;;;;;25.70;48.60;;;;;;8364438;28;19944;-45
2021/08/12 16:36:43;;;;;;;;;;;25.70;48.60;;;;;;8363281;28;20377;-44
2021/08/12 16:40:44;;;;;;;;;;;25.70;48.70;;;;;;8363594;28;19920;-44
2021/08/12 16:44:44;;;;;;;;;;;25.70;48.70;;;;;;8363614;28;20437;-45
2021/08/12 16:48:45;;;;;;;;;;;25.70;48.60;;;;;;8363064;28;19913;-45
2021/08/12 16:52:45;;;;;;;;;;;25.70;48.70;;;;;;8364448;28;20375;-44
2021/08/12 16:56:45;;;;;;;;;;;25.70;48.70;;;;;;8363217;28;19917;-45
2021/08/12 17:00:46;;;;;;;;;;;25.70;48.70;;;;;;8363036;28;19943;-45
2021/08/12 17:04:46;;;;;;;;;;;25.70;48.60;;;;;;8367289;28;19921;-44
2021/08/12 17:08:47;;;;;;;;;;;25.70;48.60;;;;;;8370958;28;19925;-44
2021/08/12 17:12:47;;;;;;;;;;;25.70;48.60;;;;;;8370087;28;20008;-45
2021/08/12 17:16:48;;;;;;;;;;;25.70;48.70;;;;;;8369961;28;19967;-49
2021/08/12 17:20:48;;;;;;;;;;;25.70;48.60;;;;;;8369185;28;19924;-44
2021/08/12 17:24:49;;;;;;;;;;;25.80;48.70;;;;;;8370170;28;20042;-44
2021/08/12 17:28:49;;;;;;;;;;;25.70;48.70;;;;;;8369527;28;20411;-45
2021/08/12 17:32:50;;;;;;;;;;;25.80;48.70;;;;;;8369028;28;19940;-44
2021/08/12 17:36:50;;;;;;;;;;;25.80;48.70;;;;;;8369595;28;19998;-44
2021/08/12 17:40:50;;;;;;;;;;;25.80;48.70;;;;;;8368995;28;19920;-45
2021/08/12 17:44:51;;;;;;;;;;;25.80;48.70;;;;;;8369285;28;19913;-45
2021/08/12 17:48:51;;;;;;;;;;;25.80;48.70;;;;;;8368815;28;19917;-45
2021/08/12 17:52:52;;;;;;;;;;;25.80;48.70;;;;;;8368595;28;19925;-44
2021/08/12 17:56:52;;;;;;;;;;;25.80;48.70;;;;;;8368215;28;19923;-44
2021/08/12 18:00:53;;;;;;;;;;;25.80;48.70;;;;;;8369040;28;19913;-44
2021/08/12 18:04:54;;;;;;;;;;;25.80;48.70;;;;;;8368501;28;20369;-44
2021/08/12 18:08:54;;;;;;;;;;;25.80;48.70;;;;;;8368497;28;19921;-44
2021/08/12 18:12:55;;;;;;;;;;;25.80;48.70;;;;;;8368178;28;19946;-44
2021/08/12 18:16:55;;;;;;;;;;;25.80;48.70;;;;;;8368162;28;20308;-44
2021/08/12 18:20:55;;;;;;;;;;;25.80;48.80;;;;;;8367628;28;20302;-44
2021/08/12 18:24:57;;;;;;;;;;;25.80;48.70;;;;;;8367764;28;20396;-44
2021/08/12 18:28:57;;;;;;;;;;;25.80;48.70;;;;;;8367932;28;20355;-44
2021/08/12 18:32:57;;;;;;;;;;;25.80;48.90;;;;;;8367302;28;19929;-47
2021/08/12 18:36:58;;;;;;;;;;;25.80;48.90;;;;;;8367994;28;19920;-44
2021/08/12 18:40:58;;;;;;;;;;;25.80;49.00;;;;;;8367190;28;19923;-44
2021/08/12 18:44:59;;;;;;;;;;;25.80;49.10;;;;;;8366723;28;19912;-44
2021/08/12 18:49:03;;;;;;;;;;;25.80;49.40;;;;;;8366900;28;19913;-44
2021/08/12 18:53:03;;;;;;;;;;;25.80;49.10;;;;;;8367698;28;20313;-44
2021/08/12 18:57:04;;;;;;;;;;;25.80;49.20;;;;;;8366393;28;19970;-44
2021/08/12 19:01:04;;;;;;;;;;;25.80;49.30;;;;;;8366632;28;19920;-45
2021/08/12 19:05:05;;;;;;;;;;;25.80;49.40;;;;;;8366449;28;19913;-44
2021/08/12 19:09:05;;;;;;;;;;;25.80;49.60;;;;;;8366074;28;20961;-44
2021/08/12 19:13:06;;;;;;;;;;;25.80;49.80;;;;;;8367186;28;19925;-44
2021/08/12 19:17:06;;;;;;;;;;;25.80;50.00;;;;;;8366203;28;19920;-44
2021/08/12 19:21:07;;;;;;;;;;;25.80;50.10;;;;;;8365732;28;19920;-44
2021/08/12 19:25:08;;;;;;;;;;;25.80;50.20;;;;;;8365511;28;20352;-43
2021/08/12 19:29:09;;;;;;;;;;;25.80;50.30;;;;;;8366260;28;19971;-43
2021/08/12 19:33:09;;;;;;;;;;;25.80;50.80;;;;;;8365135;28;20074;-43
2021/08/12 19:37:10;;;;;;;;;;;25.80;50.80;;;;;;8365715;28;20448;-44
2021/08/12 19:41:10;;;;;;;;;;;25.70;50.80;;;;;;8365515;28;19913;-44
2021/08/12 19:45:11;;;;;;;;;;;25.70;50.90;;;;;;8365617;28;19923;-44
2021/08/12 19:49:11;;;;;;;;;;;25.70;51.00;;;;;;8362951;28;19923;-43
2021/08/12 19:53:12;;;;;;;;;;;25.70;50.40;;;;;;8364824;28;19964;-45
2021/08/12 19:57:12;;;;;;;;;;;25.70;50.30;;;;;;8364344;28;20341;-44
2021/08/12 20:01:13;;;;;;;;;;;25.70;50.40;;;;;;8364651;28;19912;-44
2021/08/12 20:05:14;;;;;;;;;;;25.70;50.50;;;;;;8365379;28;20005;-44
2021/08/12 20:09:15;;;;;;;;;;;25.70;50.00;;;;;;8364609;28;19928;-44
2021/08/12 20:13:16;;;;;;;;;;;25.60;49.80;;;;;;8364594;28;19925;-43
2021/08/12 20:17:16;;;;;;;;;;;25.60;49.60;;;;;;8364381;28;19941;-45
2021/08/12 20:21:19;;;;;;;;;;;25.60;49.50;;;;;;8363642;28;21296;-45
2021/08/12 20:25:19;;;;;;;;;;;25.60;49.50;;;;;;8362637;28;19928;-44
2021/08/12 20:29:20;;;;;;;;;;;25.60;49.40;;;;;;8363961;28;19919;-44
2021/08/12 20:33:20;;;;;;;;;;;25.60;49.40;;;;;;8363291;28;19931;-43
2021/08/12 20:37:20;;;;;;;;;;;25.60;49.50;;;;;;8364221;28;19919;-44
2021/08/12 20:41:21;;;;;;;;;;;25.60;49.30;;;;;;8363570;28;19921;-44
2021/08/12 20:45:21;;;;;;;;;;;25.60;49.30;;;;;;8363059;28;19916;-45
2021/08/12 20:49:22;;;;;;;;;;;25.60;49.20;;;;;;8363445;28;20000;-44
2021/08/12 20:53:22;;;;;;;;;;;25.60;49.20;;;;;;8363606;28;19925;-44
2021/08/12 20:57:23;;;;;;;;;;;25.70;49.10;;;;;;8363541;28;19913;-44
2021/08/12 21:01:23;;;;;;;;;;;25.60;49.10;;;;;;8363204;28;20000;-45
2021/08/12 21:05:32;;;;;;;;;;;25.70;49.10;;;;;;8363129;28;19913;-44
2021/08/12 21:09:33;;;;;;;;;;;25.60;49.00;;;;;;8363949;28;19952;-44
2021/08/12 21:13:33;;;;;;;;;;;25.70;49.00;;;;;;8363964;28;20317;-44
2021/08/12 21:17:35;;;;;;;;;;;25.70;49.00;;;;;;8363017;28;19923;-43
2021/08/12 21:21:37;;;;;;;;;;;25.70;49.00;;;;;;8362415;28;19921;-45
2021/08/12 21:25:38;;;;;;;;;;;25.70;49.00;;;;;;8362655;28;19969;-44
2021/08/12 21:29:38;;;;;;;;;;;25.70;49.00;;;;;;8362766;28;19920;-44
2021/08/12 21:33:38;;;;;;;;;;;25.70;48.90;;;;;;8362962;28;20397;-45
2021/08/12 21:37:39;;;;;;;;;;;25.70;48.90;;;;;;8362767;28;19924;-46
2021/08/12 21:41:40;;;;;;;;;;;25.80;48.90;;;;;;8362728;28;19928;-44
2021/08/12 21:45:40;;;;;;;;;;;25.70;48.90;;;;;;8362073;28;19924;-44
2021/08/12 21:49:41;;;;;;;;;;;25.70;48.90;;;;;;8365693;28;19966;-45
2021/08/12 21:53:41;;;;;;;;;;;25.70;48.90;;;;;;8368787;28;19924;-45
2021/08/12 21:57:41;;;;;;;;;;;25.70;48.90;;;;;;8368454;28;19917;-45
2021/08/12 22:01:42;;;;;;;;;;;25.70;48.90;;;;;;8366853;28;19943;-44
2021/08/12 22:05:43;;;;;;;;;;;25.70;48.90;;;;;;8369075;28;19923;-44
2021/08/12 22:09:43;;;;;;;;;;;25.70;48.90;;;;;;8367676;28;20007;-45
2021/08/12 22:13:45;;;;;;;;;;;25.70;48.90;;;;;;8368039;28;19988;-44
2021/08/12 22:17:46;;;;;;;;;;;25.70;48.80;;;;;;8367892;28;19920;-44
2021/08/12 22:21:47;;;;;;;;;;;25.70;48.80;;;;;;8367587;28;20378;-46
2021/08/12 22:25:48;;;;;;;;;;;25.70;48.90;;;;;;8368719;28;19921;-44
2021/08/12 22:29:48;;;;;;;;;;;25.70;48.80;;;;;;8367213;28;19923;-44
2021/08/12 22:33:49;;;;;;;;;;;25.70;48.90;;;;;;8367335;28;19929;-44
2021/08/12 22:37:50;;;;;;;;;;;25.70;48.80;;;;;;8367211;28;20309;-44
2021/08/12 22:41:51;;;;;;;;;;;25.60;48.80;;;;;;8367650;28;19967;-44
2021/08/12 22:45:52;;;;;;;;;;;25.60;48.80;;;;;;8367059;28;20294;-45
2021/08/12 22:49:53;;;;;;;;;;;25.70;49.40;;;;;;8367086;28;19924;-44
2021/08/12 22:53:56;;;;;;;;;;;25.60;48.80;;;;;;8366536;28;19921;-45
2021/08/12 22:57:57;;;;;;;;;;;25.70;48.90;;;;;;8366817;28;19912;-45
2021/08/12 23:01:57;;;;;;;;;;;25.60;48.90;;;;;;8366005;28;19943;-45
2021/08/12 23:05:57;;;;;;;;;;;25.60;48.90;;;;;;8366212;28;20264;-44
2021/08/12 23:09:58;;;;;;;;;;;25.60;48.90;;;;;;8366227;28;19979;-44
2021/08/12 23:13:58;;;;;;;;;;;25.60;48.90;;;;;;8366146;28;19921;-44
2021/08/12 23:18:02;;;;;;;;;;;25.60;48.90;;;;;;8366581;28;20054;-44
2021/08/12 23:22:02;;;;;;;;;;;25.60;48.90;;;;;;8365930;28;19921;-43